sensor_id;sensor_type;location;lat;lon;timestamp;P1;durP1;ratioP1;P2;durP2;ratioP2
12122;SDS011;6125;59.628;17.852;2023-12-20T00:02:04;4.23;;;1.10;;
12122;SDS011;6125;59.628;17.852;2023-12-20T00:04:31;11.93;;;1.60;;
12122;SDS011;6125;59.628;17.852;2023-12-20T00:06:58;6.83;;;1.87;;
12122;SDS011;6125;59.628;17.852;2023-12-20T00:09:26;9.03;;;1.47;;
12122;SDS011;6125;59.628;17.852;2023-12-20T00:11:54;9.03;;;1.73;;
12122;SDS011;6125;59.628;17.852;2023-12-20T00:14:22;7.57;;;1.97;;
12122;SDS011;6125;59.628;17.852;2023-12-20T00:16:50;5.03;;;1.73;;
12122;SDS011;6125;59.628;17.852;2023-12-20T00:19:17;5.03;;;2.20;;
12122;SDS011;6125;59.628;17.852;2023-12-20T00:21:45;5.13;;;1.57;;
12122;SDS011;6125;59.628;17.852;2023-12-20T00:24:12;6.57;;;1.40;;
12122;SDS011;6125;59.628;17.852;2023-12-20T00:26:40;7.60;;;1.50;;
12122;SDS011;6125;59.628;17.852;2023-12-20T00:29:07;6.17;;;1.77;;
12122;SDS011;6125;59.628;17.852;2023-12-20T00:31:34;10.90;;;1.73;;
12122;SDS011;6125;59.628;17.852;2023-12-20T00:34:05;6.27;;;1.47;;
12122;SDS011;6125;59.628;17.852;2023-12-20T00:36:33;7.47;;;1.70;;
12122;SDS011;6125;59.628;17.852;2023-12-20T00:39:01;7.33;;;2.47;;
12122;SDS011;6125;59.628;17.852;2023-12-20T00:41:29;7.33;;;1.60;;
12122;SDS011;6125;59.628;17.852;2023-12-20T00:43:56;10.90;;;1.40;;
12122;SDS011;6125;59.628;17.852;2023-12-20T00:46:24;7.00;;;1.83;;
12122;SDS011;6125;59.628;17.852;2023-12-20T00:48:51;6.73;;;1.83;;
12122;SDS011;6125;59.628;17.852;2023-12-20T00:51:22;7.47;;;1.57;;
12122;SDS011;6125;59.628;17.852;2023-12-20T00:53:49;6.60;;;1.50;;
12122;SDS011;6125;59.628;17.852;2023-12-20T00:56:20;5.40;;;1.40;;
12122;SDS011;6125;59.628;17.852;2023-12-20T00:58:47;8.73;;;1.33;;
12122;SDS011;6125;59.628;17.852;2023-12-20T01:01:14;7.90;;;2.07;;
12122;SDS011;6125;59.628;17.852;2023-12-20T01:03:42;9.93;;;2.60;;
12122;SDS011;6125;59.628;17.852;2023-12-20T01:06:09;6.83;;;1.40;;
12122;SDS011;6125;59.628;17.852;2023-12-20T01:08:38;7.00;;;1.60;;
12122;SDS011;6125;59.628;17.852;2023-12-20T01:11:05;5.20;;;1.70;;
12122;SDS011;6125;59.628;17.852;2023-12-20T01:13:33;6.37;;;1.57;;
12122;SDS011;6125;59.628;17.852;2023-12-20T01:16:00;7.23;;;2.07;;
12122;SDS011;6125;59.628;17.852;2023-12-20T01:18:27;4.47;;;1.60;;
12122;SDS011;6125;59.628;17.852;2023-12-20T01:20:56;5.57;;;1.50;;
12122;SDS011;6125;59.628;17.852;2023-12-20T01:23:29;5.67;;;1.70;;
12122;SDS011;6125;59.628;17.852;2023-12-20T01:25:57;8.13;;;1.77;;
12122;SDS011;6125;59.628;17.852;2023-12-20T01:28:25;8.00;;;1.67;;
12122;SDS011;6125;59.628;17.852;2023-12-20T01:30:52;7.13;;;1.87;;
12122;SDS011;6125;59.628;17.852;2023-12-20T01:33:20;7.20;;;1.73;;
12122;SDS011;6125;59.628;17.852;2023-12-20T01:35:47;9.20;;;1.70;;
12122;SDS011;6125;59.628;17.852;2023-12-20T01:38:14;8.63;;;1.60;;
12122;SDS011;6125;59.628;17.852;2023-12-20T01:40:43;12.50;;;1.93;;
12122;SDS011;6125;59.628;17.852;2023-12-20T01:43:12;6.50;;;1.73;;
12122;SDS011;6125;59.628;17.852;2023-12-20T01:45:39;6.50;;;1.70;;
12122;SDS011;6125;59.628;17.852;2023-12-20T01:48:07;9.93;;;1.60;;
12122;SDS011;6125;59.628;17.852;2023-12-20T01:50:35;10.53;;;2.03;;
12122;SDS011;6125;59.628;17.852;2023-12-20T01:53:03;9.93;;;2.10;;
12122;SDS011;6125;59.628;17.852;2023-12-20T01:55:32;8.83;;;1.97;;
12122;SDS011;6125;59.628;17.852;2023-12-20T01:58:01;11.23;;;2.57;;
12122;SDS011;6125;59.628;17.852;2023-12-20T02:00:32;6.30;;;1.60;;
12122;SDS011;6125;59.628;17.852;2023-12-20T02:03:00;10.03;;;1.93;;
12122;SDS011;6125;59.628;17.852;2023-12-20T02:05:28;5.60;;;1.73;;
12122;SDS011;6125;59.628;17.852;2023-12-20T02:07:56;8.83;;;1.77;;
12122;SDS011;6125;59.628;17.852;2023-12-20T02:10:23;7.30;;;1.67;;
12122;SDS011;6125;59.628;17.852;2023-12-20T02:12:51;10.43;;;2.20;;
12122;SDS011;6125;59.628;17.852;2023-12-20T02:15:24;10.07;;;2.53;;
12122;SDS011;6125;59.628;17.852;2023-12-20T02:17:55;8.10;;;1.67;;
12122;SDS011;6125;59.628;17.852;2023-12-20T02:20:23;7.77;;;2.20;;
12122;SDS011;6125;59.628;17.852;2023-12-20T02:22:51;12.00;;;2.40;;
12122;SDS011;6125;59.628;17.852;2023-12-20T02:25:18;8.93;;;1.57;;
12122;SDS011;6125;59.628;17.852;2023-12-20T02:27:46;14.73;;;2.70;;
12122;SDS011;6125;59.628;17.852;2023-12-20T02:30:14;8.87;;;2.00;;
12122;SDS011;6125;59.628;17.852;2023-12-20T02:32:43;11.73;;;1.70;;
12122;SDS011;6125;59.628;17.852;2023-12-20T02:35:10;8.70;;;2.23;;
12122;SDS011;6125;59.628;17.852;2023-12-20T02:37:38;11.60;;;1.70;;
12122;SDS011;6125;59.628;17.852;2023-12-20T02:40:07;7.80;;;2.00;;
12122;SDS011;6125;59.628;17.852;2023-12-20T02:42:35;7.17;;;2.40;;
12122;SDS011;6125;59.628;17.852;2023-12-20T02:45:03;4.83;;;1.83;;
12122;SDS011;6125;59.628;17.852;2023-12-20T02:47:32;14.07;;;1.97;;
12122;SDS011;6125;59.628;17.852;2023-12-20T02:49:59;10.77;;;2.37;;
12122;SDS011;6125;59.628;17.852;2023-12-20T02:52:27;7.90;;;1.90;;
12122;SDS011;6125;59.628;17.852;2023-12-20T02:54:57;9.93;;;2.47;;
12122;SDS011;6125;59.628;17.852;2023-12-20T02:57:27;8.27;;;1.90;;
12122;SDS011;6125;59.628;17.852;2023-12-20T02:59:54;13.37;;;2.57;;
12122;SDS011;6125;59.628;17.852;2023-12-20T03:02:21;11.77;;;2.47;;
12122;SDS011;6125;59.628;17.852;2023-12-20T03:04:50;10.00;;;1.47;;
12122;SDS011;6125;59.628;17.852;2023-12-20T03:07:17;5.73;;;1.80;;
12122;SDS011;6125;59.628;17.852;2023-12-20T03:09:45;9.67;;;2.00;;
12122;SDS011;6125;59.628;17.852;2023-12-20T03:12:13;11.17;;;2.00;;
12122;SDS011;6125;59.628;17.852;2023-12-20T03:14:42;3.70;;;1.97;;
12122;SDS011;6125;59.628;17.852;2023-12-20T03:17:10;10.63;;;2.73;;
12122;SDS011;6125;59.628;17.852;2023-12-20T03:19:37;11.20;;;2.03;;
12122;SDS011;6125;59.628;17.852;2023-12-20T03:22:04;6.27;;;1.53;;
12122;SDS011;6125;59.628;17.852;2023-12-20T03:24:31;9.30;;;2.20;;
12122;SDS011;6125;59.628;17.852;2023-12-20T03:26:59;6.00;;;2.43;;
12122;SDS011;6125;59.628;17.852;2023-12-20T03:29:26;5.50;;;1.77;;
12122;SDS011;6125;59.628;17.852;2023-12-20T03:31:57;10.93;;;2.23;;
12122;SDS011;6125;59.628;17.852;2023-12-20T03:34:26;16.93;;;2.47;;
12122;SDS011;6125;59.628;17.852;2023-12-20T03:36:54;11.97;;;2.33;;
12122;SDS011;6125;59.628;17.852;2023-12-20T03:39:21;7.10;;;1.87;;
12122;SDS011;6125;59.628;17.852;2023-12-20T03:41:48;9.67;;;1.93;;
12122;SDS011;6125;59.628;17.852;2023-12-20T03:44:15;7.10;;;2.40;;
12122;SDS011;6125;59.628;17.852;2023-12-20T03:46:43;13.60;;;3.10;;
12122;SDS011;6125;59.628;17.852;2023-12-20T03:49:12;13.20;;;2.73;;
12122;SDS011;6125;59.628;17.852;2023-12-20T03:51:39;6.70;;;1.80;;
12122;SDS011;6125;59.628;17.852;2023-12-20T03:54:07;3.50;;;1.43;;
12122;SDS011;6125;59.628;17.852;2023-12-20T03:56:34;7.80;;;1.97;;
12122;SDS011;6125;59.628;17.852;2023-12-20T03:59:01;5.97;;;1.83;;
12122;SDS011;6125;59.628;17.852;2023-12-20T04:01:31;13.20;;;2.40;;
12122;SDS011;6125;59.628;17.852;2023-12-20T04:03:58;8.20;;;2.20;;
12122;SDS011;6125;59.628;17.852;2023-12-20T04:06:26;5.47;;;1.93;;
12122;SDS011;6125;59.628;17.852;2023-12-20T04:08:54;10.47;;;1.87;;
12122;SDS011;6125;59.628;17.852;2023-12-20T04:11:21;12.60;;;2.27;;
12122;SDS011;6125;59.628;17.852;2023-12-20T04:13:48;5.13;;;1.77;;
12122;SDS011;6125;59.628;17.852;2023-12-20T04:16:18;11.97;;;2.57;;
12122;SDS011;6125;59.628;17.852;2023-12-20T04:18:45;8.33;;;2.60;;
12122;SDS011;6125;59.628;17.852;2023-12-20T04:21:12;7.10;;;1.40;;
12122;SDS011;6125;59.628;17.852;2023-12-20T04:23:40;10.57;;;2.10;;
12122;SDS011;6125;59.628;17.852;2023-12-20T04:26:08;5.30;;;1.90;;
12122;SDS011;6125;59.628;17.852;2023-12-20T04:28:35;6.73;;;1.87;;
12122;SDS011;6125;59.628;17.852;2023-12-20T04:31:02;10.57;;;1.97;;
12122;SDS011;6125;59.628;17.852;2023-12-20T04:33:31;10.83;;;2.47;;
12122;SDS011;6125;59.628;17.852;2023-12-20T04:36:00;5.27;;;2.00;;
12122;SDS011;6125;59.628;17.852;2023-12-20T04:38:29;11.43;;;2.20;;
12122;SDS011;6125;59.628;17.852;2023-12-20T04:41:02;5.60;;;2.10;;
12122;SDS011;6125;59.628;17.852;2023-12-20T04:43:30;8.67;;;2.03;;
12122;SDS011;6125;59.628;17.852;2023-12-20T04:45:57;8.70;;;2.20;;
12122;SDS011;6125;59.628;17.852;2023-12-20T04:48:24;8.33;;;2.67;;
12122;SDS011;6125;59.628;17.852;2023-12-20T04:50:51;14.60;;;2.53;;
12122;SDS011;6125;59.628;17.852;2023-12-20T04:53:21;7.40;;;2.03;;
12122;SDS011;6125;59.628;17.852;2023-12-20T04:55:56;6.50;;;2.23;;
12122;SDS011;6125;59.628;17.852;2023-12-20T04:58:25;10.90;;;3.33;;
12122;SDS011;6125;59.628;17.852;2023-12-20T05:00:52;14.30;;;2.93;;
12122;SDS011;6125;59.628;17.852;2023-12-20T05:03:19;5.17;;;2.43;;
12122;SDS011;6125;59.628;17.852;2023-12-20T05:05:46;12.67;;;2.57;;
12122;SDS011;6125;59.628;17.852;2023-12-20T05:08:14;10.83;;;3.17;;
12122;SDS011;6125;59.628;17.852;2023-12-20T05:10:41;15.60;;;3.30;;
12122;SDS011;6125;59.628;17.852;2023-12-20T05:13:08;10.57;;;3.00;;
12122;SDS011;6125;59.628;17.852;2023-12-20T05:15:37;7.47;;;2.50;;
12122;SDS011;6125;59.628;17.852;2023-12-20T05:18:04;9.93;;;2.57;;
12122;SDS011;6125;59.628;17.852;2023-12-20T05:20:32;14.20;;;3.57;;
12122;SDS011;6125;59.628;17.852;2023-12-20T05:22:59;17.33;;;2.97;;
12122;SDS011;6125;59.628;17.852;2023-12-20T05:25:26;9.67;;;2.43;;
12122;SDS011;6125;59.628;17.852;2023-12-20T05:27:55;9.70;;;2.70;;
12122;SDS011;6125;59.628;17.852;2023-12-20T05:30:22;8.00;;;2.93;;
12122;SDS011;6125;59.628;17.852;2023-12-20T05:32:51;6.10;;;2.70;;
12122;SDS011;6125;59.628;17.852;2023-12-20T05:35:18;8.23;;;2.97;;
12122;SDS011;6125;59.628;17.852;2023-12-20T05:37:45;6.13;;;3.57;;
12122;SDS011;6125;59.628;17.852;2023-12-20T05:40:14;13.07;;;3.60;;
12122;SDS011;6125;59.628;17.852;2023-12-20T05:42:41;6.37;;;2.90;;
12122;SDS011;6125;59.628;17.852;2023-12-20T05:45:08;9.93;;;3.57;;
12122;SDS011;6125;59.628;17.852;2023-12-20T05:47:36;9.93;;;2.97;;
12122;SDS011;6125;59.628;17.852;2023-12-20T05:50:05;7.03;;;3.20;;
12122;SDS011;6125;59.628;17.852;2023-12-20T05:52:34;10.13;;;3.60;;
12122;SDS011;6125;59.628;17.852;2023-12-20T05:55:01;11.77;;;3.80;;
12122;SDS011;6125;59.628;17.852;2023-12-20T05:57:33;8.30;;;3.73;;
12122;SDS011;6125;59.628;17.852;2023-12-20T06:00:00;13.60;;;3.30;;
12122;SDS011;6125;59.628;17.852;2023-12-20T06:02:28;8.97;;;3.60;;
12122;SDS011;6125;59.628;17.852;2023-12-20T06:04:56;9.47;;;3.10;;
12122;SDS011;6125;59.628;17.852;2023-12-20T06:07:24;11.90;;;4.10;;
12122;SDS011;6125;59.628;17.852;2023-12-20T06:09:53;12.13;;;3.87;;
12122;SDS011;6125;59.628;17.852;2023-12-20T06:12:20;11.37;;;3.63;;
12122;SDS011;6125;59.628;17.852;2023-12-20T06:14:47;12.47;;;3.90;;
12122;SDS011;6125;59.628;17.852;2023-12-20T06:17:14;9.43;;;3.87;;
12122;SDS011;6125;59.628;17.852;2023-12-20T06:19:41;7.20;;;3.33;;
12122;SDS011;6125;59.628;17.852;2023-12-20T06:22:13;6.53;;;2.77;;
12122;SDS011;6125;59.628;17.852;2023-12-20T06:24:42;8.63;;;3.20;;
12122;SDS011;6125;59.628;17.852;2023-12-20T06:27:09;11.67;;;3.10;;
12122;SDS011;6125;59.628;17.852;2023-12-20T06:29:45;14.63;;;4.23;;
12122;SDS011;6125;59.628;17.852;2023-12-20T06:32:13;7.43;;;3.43;;
12122;SDS011;6125;59.628;17.852;2023-12-20T06:34:41;4.93;;;2.77;;
12122;SDS011;6125;59.628;17.852;2023-12-20T06:37:08;13.13;;;3.80;;
12122;SDS011;6125;59.628;17.852;2023-12-20T06:39:35;8.60;;;3.13;;
12122;SDS011;6125;59.628;17.852;2023-12-20T06:42:04;6.13;;;3.00;;
12122;SDS011;6125;59.628;17.852;2023-12-20T06:44:31;8.33;;;3.20;;
12122;SDS011;6125;59.628;17.852;2023-12-20T06:47:02;8.77;;;3.30;;
12122;SDS011;6125;59.628;17.852;2023-12-20T06:49:29;7.80;;;2.90;;
12122;SDS011;6125;59.628;17.852;2023-12-20T06:51:57;8.53;;;2.87;;
12122;SDS011;6125;59.628;17.852;2023-12-20T06:54:31;7.83;;;3.10;;
12122;SDS011;6125;59.628;17.852;2023-12-20T06:56:59;10.13;;;3.10;;
12122;SDS011;6125;59.628;17.852;2023-12-20T06:59:29;12.73;;;2.50;;
12122;SDS011;6125;59.628;17.852;2023-12-20T07:01:56;12.80;;;3.70;;
12122;SDS011;6125;59.628;17.852;2023-12-20T07:04:23;7.20;;;2.70;;
12122;SDS011;6125;59.628;17.852;2023-12-20T07:06:51;6.60;;;2.73;;
12122;SDS011;6125;59.628;17.852;2023-12-20T07:09:21;7.30;;;3.13;;
12122;SDS011;6125;59.628;17.852;2023-12-20T07:11:49;6.03;;;2.63;;
12122;SDS011;6125;59.628;17.852;2023-12-20T07:14:17;6.07;;;2.57;;
12122;SDS011;6125;59.628;17.852;2023-12-20T07:16:46;9.20;;;2.40;;
12122;SDS011;6125;59.628;17.852;2023-12-20T07:19:13;9.43;;;3.00;;
12122;SDS011;6125;59.628;17.852;2023-12-20T07:21:41;6.53;;;2.87;;
12122;SDS011;6125;59.628;17.852;2023-12-20T07:24:09;6.13;;;2.73;;
12122;SDS011;6125;59.628;17.852;2023-12-20T07:26:36;10.53;;;2.93;;
12122;SDS011;6125;59.628;17.852;2023-12-20T07:29:04;21.43;;;3.30;;
12122;SDS011;6125;59.628;17.852;2023-12-20T07:31:33;12.57;;;2.70;;
12122;SDS011;6125;59.628;17.852;2023-12-20T07:34:08;10.80;;;3.07;;
12122;SDS011;6125;59.628;17.852;2023-12-20T07:36:35;17.17;;;3.30;;
12122;SDS011;6125;59.628;17.852;2023-12-20T07:39:02;17.47;;;4.93;;
12122;SDS011;6125;59.628;17.852;2023-12-20T07:41:30;8.60;;;2.87;;
12122;SDS011;6125;59.628;17.852;2023-12-20T07:43:57;14.03;;;2.97;;
12122;SDS011;6125;59.628;17.852;2023-12-20T07:46:24;11.33;;;2.90;;
12122;SDS011;6125;59.628;17.852;2023-12-20T07:48:51;10.07;;;2.97;;
12122;SDS011;6125;59.628;17.852;2023-12-20T07:51:20;15.73;;;3.00;;
12122;SDS011;6125;59.628;17.852;2023-12-20T07:53:47;6.70;;;2.73;;
12122;SDS011;6125;59.628;17.852;2023-12-20T07:56:15;9.20;;;2.90;;
12122;SDS011;6125;59.628;17.852;2023-12-20T07:58:42;10.30;;;3.10;;
12122;SDS011;6125;59.628;17.852;2023-12-20T08:01:10;10.97;;;3.13;;
12122;SDS011;6125;59.628;17.852;2023-12-20T08:03:39;16.07;;;3.20;;
12122;SDS011;6125;59.628;17.852;2023-12-20T08:06:06;6.77;;;3.10;;
12122;SDS011;6125;59.628;17.852;2023-12-20T08:08:34;13.47;;;3.63;;
12122;SDS011;6125;59.628;17.852;2023-12-20T08:11:02;5.23;;;3.47;;
12122;SDS011;6125;59.628;17.852;2023-12-20T08:13:29;11.70;;;3.30;;
12122;SDS011;6125;59.628;17.852;2023-12-20T08:15:56;8.70;;;3.20;;
12122;SDS011;6125;59.628;17.852;2023-12-20T08:18:28;23.10;;;3.97;;
12122;SDS011;6125;59.628;17.852;2023-12-20T08:20:55;8.73;;;3.27;;
12122;SDS011;6125;59.628;17.852;2023-12-20T08:23:22;12.10;;;3.53;;
12122;SDS011;6125;59.628;17.852;2023-12-20T08:25:51;10.53;;;3.30;;
12122;SDS011;6125;59.628;17.852;2023-12-20T08:28:18;25.90;;;3.80;;
12122;SDS011;6125;59.628;17.852;2023-12-20T08:30:45;9.70;;;3.30;;
12122;SDS011;6125;59.628;17.852;2023-12-20T08:33:13;15.43;;;4.00;;
12122;SDS011;6125;59.628;17.852;2023-12-20T08:35:40;18.27;;;3.93;;
12122;SDS011;6125;59.628;17.852;2023-12-20T08:38:07;12.23;;;4.07;;
12122;SDS011;6125;59.628;17.852;2023-12-20T08:40:34;14.57;;;4.63;;
12122;SDS011;6125;59.628;17.852;2023-12-20T08:43:04;9.67;;;4.10;;
12122;SDS011;6125;59.628;17.852;2023-12-20T08:45:31;11.13;;;4.67;;
12122;SDS011;6125;59.628;17.852;2023-12-20T08:48:01;12.50;;;4.13;;
12122;SDS011;6125;59.628;17.852;2023-12-20T08:50:29;12.00;;;4.30;;
12122;SDS011;6125;59.628;17.852;2023-12-20T08:52:57;9.87;;;4.90;;
12122;SDS011;6125;59.628;17.852;2023-12-20T08:55:25;7.37;;;3.60;;
12122;SDS011;6125;59.628;17.852;2023-12-20T08:57:53;9.47;;;4.70;;
12122;SDS011;6125;59.628;17.852;2023-12-20T09:00:22;8.90;;;4.67;;
12122;SDS011;6125;59.628;17.852;2023-12-20T09:02:52;32.87;;;5.23;;
12122;SDS011;6125;59.628;17.852;2023-12-20T09:05:21;6.93;;;3.40;;
12122;SDS011;6125;59.628;17.852;2023-12-20T09:07:48;6.77;;;3.47;;
12122;SDS011;6125;59.628;17.852;2023-12-20T09:10:15;11.00;;;4.00;;
12122;SDS011;6125;59.628;17.852;2023-12-20T09:12:47;11.10;;;4.33;;
12122;SDS011;6125;59.628;17.852;2023-12-20T09:15:15;6.47;;;3.83;;
12122;SDS011;6125;59.628;17.852;2023-12-20T09:17:44;9.80;;;4.00;;
12122;SDS011;6125;59.628;17.852;2023-12-20T09:20:11;8.00;;;3.53;;
12122;SDS011;6125;59.628;17.852;2023-12-20T09:22:39;11.43;;;4.10;;
12122;SDS011;6125;59.628;17.852;2023-12-20T09:25:07;8.50;;;3.90;;
12122;SDS011;6125;59.628;17.852;2023-12-20T09:27:35;9.13;;;3.87;;
12122;SDS011;6125;59.628;17.852;2023-12-20T09:30:03;7.20;;;3.53;;
12122;SDS011;6125;59.628;17.852;2023-12-20T09:32:31;11.27;;;3.83;;
12122;SDS011;6125;59.628;17.852;2023-12-20T09:35:00;14.60;;;4.43;;
12122;SDS011;6125;59.628;17.852;2023-12-20T09:37:27;10.67;;;3.90;;
12122;SDS011;6125;59.628;17.852;2023-12-20T09:39:55;10.73;;;3.67;;
12122;SDS011;6125;59.628;17.852;2023-12-20T09:42:27;9.60;;;4.67;;
12122;SDS011;6125;59.628;17.852;2023-12-20T09:45:03;11.77;;;4.67;;
12122;SDS011;6125;59.628;17.852;2023-12-20T09:47:35;13.00;;;4.27;;
12122;SDS011;6125;59.628;17.852;2023-12-20T09:50:04;10.63;;;5.00;;
12122;SDS011;6125;59.628;17.852;2023-12-20T09:52:32;14.70;;;4.20;;
12122;SDS011;6125;59.628;17.852;2023-12-20T09:55:03;18.30;;;5.57;;
12122;SDS011;6125;59.628;17.852;2023-12-20T09:57:32;17.87;;;5.47;;
12122;SDS011;6125;59.628;17.852;2023-12-20T10:00:02;13.33;;;5.10;;
12122;SDS011;6125;59.628;17.852;2023-12-20T10:02:32;15.53;;;5.03;;
12122;SDS011;6125;59.628;17.852;2023-12-20T10:05:01;13.60;;;5.03;;
12122;SDS011;6125;59.628;17.852;2023-12-20T10:07:34;18.07;;;6.10;;
12122;SDS011;6125;59.628;17.852;2023-12-20T10:10:02;16.50;;;6.73;;
12122;SDS011;6125;59.628;17.852;2023-12-20T10:12:30;15.00;;;6.33;;
12122;SDS011;6125;59.628;17.852;2023-12-20T10:14:59;18.20;;;6.40;;
12122;SDS011;6125;59.628;17.852;2023-12-20T10:17:27;11.50;;;5.73;;
12122;SDS011;6125;59.628;17.852;2023-12-20T10:19:55;16.87;;;6.27;;
12122;SDS011;6125;59.628;17.852;2023-12-20T10:22:24;13.27;;;6.27;;
12122;SDS011;6125;59.628;17.852;2023-12-20T10:24:56;14.33;;;6.70;;
12122;SDS011;6125;59.628;17.852;2023-12-20T10:27:23;17.97;;;7.00;;
12122;SDS011;6125;59.628;17.852;2023-12-20T10:29:50;13.87;;;6.07;;
12122;SDS011;6125;59.628;17.852;2023-12-20T10:32:22;14.67;;;6.27;;
12122;SDS011;6125;59.628;17.852;2023-12-20T10:34:51;13.03;;;5.47;;
12122;SDS011;6125;59.628;17.852;2023-12-20T10:37:20;11.63;;;5.27;;
12122;SDS011;6125;59.628;17.852;2023-12-20T10:39:50;15.70;;;6.00;;
12122;SDS011;6125;59.628;17.852;2023-12-20T10:42:21;13.13;;;5.70;;
12122;SDS011;6125;59.628;17.852;2023-12-20T10:44:50;11.83;;;6.20;;
12122;SDS011;6125;59.628;17.852;2023-12-20T10:47:19;11.63;;;6.20;;
12122;SDS011;6125;59.628;17.852;2023-12-20T10:49:46;18.20;;;6.63;;
12122;SDS011;6125;59.628;17.852;2023-12-20T10:52:14;13.57;;;6.10;;
12122;SDS011;6125;59.628;17.852;2023-12-20T10:54:43;13.43;;;6.60;;
12122;SDS011;6125;59.628;17.852;2023-12-20T10:57:12;10.67;;;6.00;;
12122;SDS011;6125;59.628;17.852;2023-12-20T10:59:43;15.13;;;6.63;;
12122;SDS011;6125;59.628;17.852;2023-12-20T11:02:14;13.83;;;6.30;;
12122;SDS011;6125;59.628;17.852;2023-12-20T11:04:43;17.07;;;6.17;;
12122;SDS011;6125;59.628;17.852;2023-12-20T11:07:18;13.33;;;6.30;;
12122;SDS011;6125;59.628;17.852;2023-12-20T11:09:54;14.10;;;7.07;;
12122;SDS011;6125;59.628;17.852;2023-12-20T11:12:32;13.17;;;6.33;;
12122;SDS011;6125;59.628;17.852;2023-12-20T11:15:08;13.87;;;6.67;;
12122;SDS011;6125;59.628;17.852;2023-12-20T11:17:38;16.80;;;6.50;;
12122;SDS011;6125;59.628;17.852;2023-12-20T11:20:09;16.00;;;6.33;;
12122;SDS011;6125;59.628;17.852;2023-12-20T11:22:39;17.63;;;7.47;;
12122;SDS011;6125;59.628;17.852;2023-12-20T11:25:18;13.87;;;7.03;;
12122;SDS011;6125;59.628;17.852;2023-12-20T11:30:45;12.80;;;6.20;;
12122;SDS011;6125;59.628;17.852;2023-12-20T11:33:13;14.10;;;6.47;;
12122;SDS011;6125;59.628;17.852;2023-12-20T11:35:42;13.73;;;5.77;;
12122;SDS011;6125;59.628;17.852;2023-12-20T11:38:13;13.00;;;6.60;;
12122;SDS011;6125;59.628;17.852;2023-12-20T11:40:41;13.17;;;5.33;;
12122;SDS011;6125;59.628;17.852;2023-12-20T11:43:10;15.73;;;6.03;;
12122;SDS011;6125;59.628;17.852;2023-12-20T11:45:37;10.70;;;5.90;;
12122;SDS011;6125;59.628;17.852;2023-12-20T11:48:16;12.87;;;5.50;;
12122;SDS011;6125;59.628;17.852;2023-12-20T11:50:45;12.03;;;6.10;;
12122;SDS011;6125;59.628;17.852;2023-12-20T11:53:12;14.67;;;6.27;;
12122;SDS011;6125;59.628;17.852;2023-12-20T11:55:39;14.53;;;6.50;;
12122;SDS011;6125;59.628;17.852;2023-12-20T11:58:06;11.30;;;6.07;;
12122;SDS011;6125;59.628;17.852;2023-12-20T12:00:35;12.37;;;6.17;;
12122;SDS011;6125;59.628;17.852;2023-12-20T12:03:03;9.83;;;5.57;;
12122;SDS011;6125;59.628;17.852;2023-12-20T12:05:31;8.53;;;5.27;;
12122;SDS011;6125;59.628;17.852;2023-12-20T12:07:59;12.47;;;5.27;;
12122;SDS011;6125;59.628;17.852;2023-12-20T12:10:26;12.93;;;5.03;;
12122;SDS011;6125;59.628;17.852;2023-12-20T12:12:54;10.70;;;4.60;;
12122;SDS011;6125;59.628;17.852;2023-12-20T12:15:22;9.67;;;4.63;;
12122;SDS011;6125;59.628;17.852;2023-12-20T12:17:54;13.00;;;4.47;;
12122;SDS011;6125;59.628;17.852;2023-12-20T12:20:22;7.70;;;4.67;;
12122;SDS011;6125;59.628;17.852;2023-12-20T12:22:57;11.57;;;4.60;;
12122;SDS011;6125;59.628;17.852;2023-12-20T12:25:25;9.80;;;5.20;;
12122;SDS011;6125;59.628;17.852;2023-12-20T12:27:53;9.83;;;4.80;;
12122;SDS011;6125;59.628;17.852;2023-12-20T12:30:20;7.67;;;4.73;;
12122;SDS011;6125;59.628;17.852;2023-12-20T12:32:48;5.57;;;4.30;;
12122;SDS011;6125;59.628;17.852;2023-12-20T12:35:19;11.23;;;4.47;;
12122;SDS011;6125;59.628;17.852;2023-12-20T12:37:47;6.87;;;4.30;;
12122;SDS011;6125;59.628;17.852;2023-12-20T12:40:14;7.40;;;4.17;;
12122;SDS011;6125;59.628;17.852;2023-12-20T12:42:45;8.30;;;4.10;;
12122;SDS011;6125;59.628;17.852;2023-12-20T12:45:12;19.40;;;11.43;;
12122;SDS011;6125;59.628;17.852;2023-12-20T12:47:40;5.43;;;3.40;;
12122;SDS011;6125;59.628;17.852;2023-12-20T12:50:08;8.23;;;3.60;;
12122;SDS011;6125;59.628;17.852;2023-12-20T12:52:37;5.10;;;3.47;;
12122;SDS011;6125;59.628;17.852;2023-12-20T12:55:04;6.47;;;3.43;;
12122;SDS011;6125;59.628;17.852;2023-12-20T12:57:34;6.63;;;3.57;;
12122;SDS011;6125;59.628;17.852;2023-12-20T13:00:02;5.00;;;3.10;;
12122;SDS011;6125;59.628;17.852;2023-12-20T13:02:33;3.97;;;2.80;;
12122;SDS011;6125;59.628;17.852;2023-12-20T13:05:03;4.97;;;3.23;;
12122;SDS011;6125;59.628;17.852;2023-12-20T13:07:30;9.17;;;3.20;;
12122;SDS011;6125;59.628;17.852;2023-12-20T13:09:59;5.07;;;3.33;;
12122;SDS011;6125;59.628;17.852;2023-12-20T13:12:26;5.77;;;3.37;;
12122;SDS011;6125;59.628;17.852;2023-12-20T13:14:54;4.13;;;2.77;;
12122;SDS011;6125;59.628;17.852;2023-12-20T13:17:21;3.97;;;2.50;;
12122;SDS011;6125;59.628;17.852;2023-12-20T13:19:49;4.50;;;2.60;;
12122;SDS011;6125;59.628;17.852;2023-12-20T13:22:17;4.97;;;2.43;;
12122;SDS011;6125;59.628;17.852;2023-12-20T13:24:45;3.33;;;2.53;;
12122;SDS011;6125;59.628;17.852;2023-12-20T13:27:13;3.97;;;2.50;;
12122;SDS011;6125;59.628;17.852;2023-12-20T13:29:40;4.63;;;3.70;;
12122;SDS011;6125;59.628;17.852;2023-12-20T13:32:08;3.03;;;2.30;;
12122;SDS011;6125;59.628;17.852;2023-12-20T13:34:35;2.73;;;2.00;;
12122;SDS011;6125;59.628;17.852;2023-12-20T13:37:02;2.80;;;2.17;;
12122;SDS011;6125;59.628;17.852;2023-12-20T13:39:30;3.07;;;2.00;;
12122;SDS011;6125;59.628;17.852;2023-12-20T13:41:58;2.33;;;1.93;;
12122;SDS011;6125;59.628;17.852;2023-12-20T13:44:26;2.83;;;1.80;;
12122;SDS011;6125;59.628;17.852;2023-12-20T13:46:54;1.97;;;1.77;;
12122;SDS011;6125;59.628;17.852;2023-12-20T13:49:21;2.40;;;2.07;;
12122;SDS011;6125;59.628;17.852;2023-12-20T13:51:50;2.33;;;2.13;;
12122;SDS011;6125;59.628;17.852;2023-12-20T13:54:19;2.70;;;1.83;;
12122;SDS011;6125;59.628;17.852;2023-12-20T13:56:47;2.80;;;2.10;;
12122;SDS011;6125;59.628;17.852;2023-12-20T13:59:16;2.80;;;2.10;;
12122;SDS011;6125;59.628;17.852;2023-12-20T14:01:49;3.27;;;2.30;;
12122;SDS011;6125;59.628;17.852;2023-12-20T14:04:16;2.60;;;2.00;;
12122;SDS011;6125;59.628;17.852;2023-12-20T14:06:43;3.20;;;2.00;;
12122;SDS011;6125;59.628;17.852;2023-12-20T14:09:11;2.27;;;1.90;;
12122;SDS011;6125;59.628;17.852;2023-12-20T14:11:38;2.63;;;1.93;;
12122;SDS011;6125;59.628;17.852;2023-12-20T14:14:07;1.57;;;1.47;;
12122;SDS011;6125;59.628;17.852;2023-12-20T14:16:34;2.33;;;2.03;;
12122;SDS011;6125;59.628;17.852;2023-12-20T14:19:03;3.47;;;1.80;;
12122;SDS011;6125;59.628;17.852;2023-12-20T14:21:32;3.50;;;2.17;;
12122;SDS011;6125;59.628;17.852;2023-12-20T14:23:59;3.27;;;2.30;;
12122;SDS011;6125;59.628;17.852;2023-12-20T14:26:26;4.47;;;2.30;;
12122;SDS011;6125;59.628;17.852;2023-12-20T14:28:55;2.70;;;2.20;;
12122;SDS011;6125;59.628;17.852;2023-12-20T14:31:24;2.60;;;2.20;;
12122;SDS011;6125;59.628;17.852;2023-12-20T14:33:52;2.83;;;2.27;;
12122;SDS011;6125;59.628;17.852;2023-12-20T14:36:21;3.33;;;2.53;;
12122;SDS011;6125;59.628;17.852;2023-12-20T14:38:49;2.97;;;2.63;;
12122;SDS011;6125;59.628;17.852;2023-12-20T14:41:16;4.80;;;3.23;;
12122;SDS011;6125;59.628;17.852;2023-12-20T14:43:45;3.40;;;2.90;;
12122;SDS011;6125;59.628;17.852;2023-12-20T14:46:13;3.90;;;2.80;;
12122;SDS011;6125;59.628;17.852;2023-12-20T14:48:40;5.33;;;2.73;;
12122;SDS011;6125;59.628;17.852;2023-12-20T14:51:07;4.13;;;3.20;;
12122;SDS011;6125;59.628;17.852;2023-12-20T14:53:38;9.70;;;3.93;;